createdAt,value
2019-05-17T00:00:52.794Z,99.90
2019-05-17T00:03:57.805Z,99.90
2019-05-17T00:07:02.930Z,99.90
2019-05-17T00:10:08.100Z,99.90
2019-05-17T00:13:14.635Z,99.90
2019-05-17T00:16:19.869Z,99.90
2019-05-17T00:19:26.318Z,99.90
2019-05-17T00:22:31.405Z,99.90
2019-05-17T00:25:37.042Z,99.90
2019-05-17T00:28:42.321Z,99.90
2019-05-17T00:31:47.431Z,99.90
2019-05-17T00:34:52.442Z,99.90
2019-05-17T00:37:57.459Z,99.90
2019-05-17T00:41:02.471Z,99.90
2019-05-17T00:44:07.558Z,99.90
2019-05-17T00:47:12.599Z,99.90
2019-05-17T00:50:18.527Z,99.90
2019-05-17T00:53:23.500Z,99.90
2019-05-17T00:56:28.580Z,99.90
2019-05-17T00:59:33.531Z,99.90
2019-05-17T01:02:38.634Z,99.90
2019-05-17T01:05:43.662Z,99.90
2019-05-17T01:09:00.542Z,99.90
2019-05-17T01:11:56.691Z,99.90
2019-05-17T01:15:01.734Z,99.90
2019-05-17T01:18:07.374Z,99.90
2019-05-17T01:21:13.159Z,99.90
2019-05-17T01:24:18.202Z,99.90
2019-05-17T01:27:23.300Z,99.90
2019-05-17T01:30:28.331Z,99.90
2019-05-17T01:33:33.359Z,99.90
2019-05-17T01:36:38.438Z,99.90
2019-05-17T01:39:43.459Z,99.90
2019-05-17T01:42:48.392Z,99.90
2019-05-17T01:45:53.335Z,99.90
2019-05-17T01:48:58.358Z,99.90
2019-05-17T01:52:03.318Z,99.90
2019-05-17T01:55:08.939Z,99.90
2019-05-17T01:58:16.253Z,99.90
2019-05-17T02:01:20.659Z,99.90
2019-05-17T02:04:26.788Z,99.90
2019-05-17T02:07:31.904Z,99.90
2019-05-17T02:10:37.678Z,99.90
2019-05-17T02:13:42.942Z,99.90
2019-05-17T02:16:47.886Z,99.90
2019-05-17T02:19:52.915Z,99.90
2019-05-17T02:22:57.919Z,99.90
2019-05-17T02:26:03.014Z,99.90
2019-05-17T02:29:08.113Z,99.90
2019-05-17T02:32:13.301Z,99.90
2019-05-17T02:35:18.598Z,99.90
2019-05-17T02:38:23.681Z,99.90
2019-05-17T02:41:28.713Z,99.90
2019-05-17T02:44:33.830Z,99.90
2019-05-17T02:47:38.845Z,99.90
2019-05-17T02:50:47.396Z,99.90
2019-05-17T02:53:52.678Z,99.90
2019-05-17T02:56:57.843Z,99.90
2019-05-17T03:00:04.329Z,99.90
2019-05-17T03:03:13.456Z,99.90
2019-05-17T03:06:17.562Z,99.90
2019-05-17T03:09:22.967Z,99.90
2019-05-17T03:12:28.086Z,99.90
2019-05-17T03:15:33.274Z,99.90
2019-05-17T03:18:38.262Z,99.90
2019-05-17T03:21:43.319Z,99.90
2019-05-17T03:24:48.478Z,99.90
2019-05-17T03:27:53.796Z,99.90
2019-05-17T03:30:58.980Z,99.90
2019-05-17T03:34:06.605Z,99.90
2019-05-17T03:37:16.078Z,99.90
2019-05-17T03:40:58.535Z,99.90
2019-05-17T03:43:24.664Z,99.90
2019-05-17T03:46:33.181Z,99.90
2019-05-17T03:49:39.302Z,99.90
2019-05-17T03:52:45.082Z,99.90
2019-05-17T03:55:53.727Z,99.90
2019-05-17T03:58:56.931Z,99.90
2019-05-17T04:02:03.257Z,99.90
2019-05-17T04:05:08.731Z,99.90
2019-05-17T04:08:14.129Z,99.90
2019-05-17T04:11:27.938Z,99.90
2019-05-17T04:14:26.010Z,99.90
2019-05-17T04:17:32.840Z,99.90
2019-05-17T04:20:37.677Z,99.90
2019-05-17T04:23:43.046Z,99.90
2019-05-17T04:26:48.356Z,99.90
2019-05-17T04:29:53.588Z,99.90
2019-05-17T04:32:58.817Z,99.90
2019-05-17T04:36:03.933Z,99.90
2019-05-17T04:39:13.100Z,99.90
2019-05-17T04:42:16.643Z,99.90
2019-05-17T04:45:23.189Z,99.90
2019-05-17T04:48:28.507Z,99.90
2019-05-17T04:51:33.539Z,99.90
2019-05-17T04:54:38.631Z,99.90
2019-05-17T04:57:44.228Z,99.90
2019-05-17T05:00:49.622Z,99.90
2019-05-17T05:03:54.694Z,99.90
2019-05-17T05:07:19.018Z,99.90
2019-05-17T05:10:26.973Z,99.90
2019-05-17T05:13:33.261Z,99.90
2019-05-17T05:16:38.679Z,99.90
2019-05-17T05:19:43.624Z,99.90
2019-05-17T05:22:48.567Z,99.90
2019-05-17T05:25:53.598Z,99.90
2019-05-17T05:28:58.523Z,99.90
2019-05-17T05:32:12.024Z,99.90
2019-05-17T05:35:17.077Z,99.90
2019-05-17T05:38:22.028Z,99.50
2019-05-17T05:41:27.050Z,99.20
2019-05-17T05:44:32.116Z,99.20
2019-05-17T05:47:37.211Z,99.00
2019-05-17T05:50:43.318Z,98.80
2019-05-17T05:53:48.475Z,98.60
2019-05-17T05:56:53.413Z,98.30
2019-05-17T05:59:58.507Z,98.50
2019-05-17T06:03:04.282Z,98.10
2019-05-17T06:06:09.416Z,97.80
2019-05-17T06:09:14.498Z,97.70
2019-05-17T06:12:24.766Z,97.70
2019-05-17T06:15:26.366Z,97.50
2019-05-17T06:18:31.913Z,97.60
2019-05-17T06:21:37.070Z,98.40
2019-05-17T06:24:42.600Z,98.10
2019-05-17T06:27:47.641Z,98.20
2019-05-17T06:30:52.574Z,98.40
2019-05-17T06:33:57.547Z,98.40
2019-05-17T06:37:02.565Z,98.60
2019-05-17T06:40:07.849Z,98.20
2019-05-17T06:43:13.333Z,98.00
2019-05-17T06:46:18.920Z,98.10
2019-05-17T06:49:24.243Z,98.10
2019-05-17T06:52:29.202Z,97.50
2019-05-17T06:55:34.209Z,97.00
2019-05-17T06:58:39.162Z,96.80
2019-05-17T07:01:44.166Z,97.00
2019-05-17T07:04:50.822Z,96.40
2019-05-17T07:07:55.947Z,96.70
2019-05-17T07:11:01.019Z,96.80
2019-05-17T07:14:06.198Z,96.30
2019-05-17T07:17:11.213Z,96.10
2019-05-17T07:20:16.594Z,95.70
2019-05-17T07:23:21.538Z,95.50
2019-05-17T07:26:26.578Z,95.40
2019-05-17T07:29:31.578Z,95.60
2019-05-17T07:32:36.681Z,94.90
2019-05-17T07:35:41.789Z,94.70
2019-05-17T07:38:46.819Z,94.50
2019-05-17T07:41:51.854Z,93.90
2019-05-17T07:44:56.856Z,93.70
2019-05-17T07:48:01.826Z,93.50
2019-05-17T07:51:06.990Z,92.80
2019-05-17T07:54:12.085Z,93.10
2019-05-17T07:57:17.051Z,92.20
2019-05-17T08:00:22.208Z,91.20
2019-05-17T08:03:29.725Z,91.30
2019-05-17T08:06:33.948Z,91.40
2019-05-17T08:09:40.417Z,91.50
2019-05-17T08:12:45.581Z,90.80
2019-05-17T08:15:50.598Z,90.60
2019-05-17T08:18:55.546Z,91.00
2019-05-17T08:22:00.515Z,90.60
2019-05-17T08:25:05.613Z,90.20
2019-05-17T08:28:11.168Z,90.00
2019-05-17T08:31:16.425Z,89.00
2019-05-17T08:34:21.495Z,87.50
2019-05-17T08:37:26.442Z,86.50
2019-05-17T08:40:31.363Z,87.20
2019-05-17T08:43:44.425Z,86.00
2019-05-17T08:46:43.092Z,86.10
2019-05-17T08:49:49.702Z,85.00
2019-05-17T08:52:54.807Z,83.80
2019-05-17T08:56:01.010Z,83.00
2019-05-17T08:59:06.312Z,81.80
2019-05-17T09:02:11.302Z,82.10
2019-05-17T09:05:16.512Z,82.00
2019-05-17T09:08:22.014Z,82.20
2019-05-17T09:11:27.030Z,81.60
2019-05-17T09:14:32.122Z,81.50
2019-05-17T09:17:39.360Z,81.20
2019-05-17T09:20:43.835Z,81.20
2019-05-17T09:23:50.346Z,81.10
2019-05-17T09:26:55.506Z,81.40
2019-05-17T09:30:00.449Z,82.00
2019-05-17T09:33:05.530Z,80.80
2019-05-17T09:36:10.554Z,80.20
2019-05-17T09:39:16.538Z,80.00
2019-05-17T09:42:21.471Z,80.40
2019-05-17T09:45:26.558Z,80.30
2019-05-17T09:48:31.566Z,80.80
2019-05-17T09:51:36.511Z,81.10
2019-05-17T09:54:45.295Z,80.30
2019-05-17T09:57:49.693Z,79.30
2019-05-17T10:00:54.869Z,79.30
2019-05-17T10:04:00.018Z,79.70
2019-05-17T10:07:05.328Z,80.10
2019-05-17T10:10:10.862Z,79.90
2019-05-17T10:13:15.991Z,80.40
2019-05-17T10:16:20.992Z,79.50
2019-05-17T10:19:26.024Z,79.40
2019-05-17T10:22:31.087Z,78.90
2019-05-17T10:25:36.668Z,78.60
2019-05-17T10:28:41.598Z,77.40
2019-05-17T10:31:50.323Z,77.70
2019-05-17T10:34:54.861Z,77.60
2019-05-17T10:38:00.089Z,77.50
2019-05-17T10:41:05.355Z,77.50
2019-05-17T10:44:10.299Z,77.40
2019-05-17T10:47:15.387Z,76.60
2019-05-17T10:50:20.739Z,75.90
2019-05-17T10:53:25.948Z,76.00
2019-05-17T10:56:30.967Z,75.50
2019-05-17T10:59:35.976Z,75.70
2019-05-17T11:02:41.459Z,75.90
2019-05-17T11:05:46.474Z,77.20
2019-05-17T11:08:51.486Z,76.10
2019-05-17T11:11:56.539Z,75.70
2019-05-17T11:15:10.858Z,75.70
2019-05-17T11:18:08.666Z,75.90
2019-05-17T11:21:13.759Z,74.70
2019-05-17T11:24:18.765Z,75.20
2019-05-17T11:27:23.788Z,75.50
2019-05-17T11:30:28.726Z,74.60
2019-05-17T11:33:33.826Z,73.90
2019-05-17T11:36:38.827Z,74.10
2019-05-17T11:39:43.849Z,73.90
2019-05-17T11:42:48.936Z,73.50
2019-05-17T11:45:53.955Z,72.90
2019-05-17T11:48:58.890Z,73.20
2019-05-17T11:52:03.980Z,73.60
2019-05-17T11:55:09.280Z,72.70
2019-05-17T11:58:14.285Z,71.80
2019-05-17T12:01:19.427Z,71.60
2019-05-17T12:04:24.375Z,71.10
2019-05-17T12:07:29.477Z,71.30
2019-05-17T12:10:34.560Z,71.40
2019-05-17T12:13:43.222Z,71.90
2019-05-17T12:16:46.316Z,71.50
2019-05-17T12:19:51.398Z,72.50
2019-05-17T12:22:56.439Z,72.40
2019-05-17T12:26:01.434Z,71.60
2019-05-17T12:29:06.533Z,71.00
2019-05-17T12:32:16.545Z,70.60
2019-05-17T12:35:18.343Z,70.60
2019-05-17T12:38:23.445Z,70.10
2019-05-17T12:41:28.459Z,70.10
2019-05-17T12:44:36.914Z,71.00
2019-05-17T12:47:40.153Z,70.80
2019-05-17T12:50:45.234Z,70.50
2019-05-17T12:53:50.284Z,70.00
2019-05-17T12:56:55.379Z,70.20
2019-05-17T13:00:00.322Z,70.30
2019-05-17T13:03:05.360Z,69.10
2019-05-17T13:06:10.389Z,70.40
2019-05-17T13:09:15.331Z,70.40
2019-05-17T13:12:20.419Z,68.00
2019-05-17T13:15:25.460Z,67.00
2019-05-17T13:18:30.558Z,66.60
2019-05-17T13:21:35.590Z,66.60
2019-05-17T13:24:40.540Z,65.10
2019-05-17T13:27:45.471Z,64.90
2019-05-17T13:30:50.483Z,65.20
2019-05-17T13:33:55.431Z,64.70
2019-05-17T13:37:00.473Z,64.30
2019-05-17T13:40:05.636Z,63.70
2019-05-17T13:43:10.622Z,62.40
2019-05-17T13:46:15.787Z,62.50
2019-05-17T13:49:20.834Z,63.10
2019-05-17T13:52:25.838Z,62.50
2019-05-17T13:55:30.779Z,62.40
2019-05-17T13:58:35.825Z,61.80
2019-05-17T14:01:40.737Z,60.70
2019-05-17T14:04:45.759Z,60.60
2019-05-17T14:07:50.768Z,60.80
2019-05-17T14:10:55.838Z,59.50
2019-05-17T14:14:00.765Z,58.60
2019-05-17T14:17:05.860Z,58.60
2019-05-17T14:20:10.949Z,58.90
2019-05-17T14:23:15.977Z,59.00
2019-05-17T14:26:21.054Z,59.00
2019-05-17T14:29:26.189Z,57.60
2019-05-17T14:32:31.314Z,57.40
2019-05-17T14:35:36.327Z,57.00
2019-05-17T14:38:41.267Z,57.60
2019-05-17T14:41:46.206Z,58.20
2019-05-17T14:44:51.220Z,58.60
2019-05-17T14:47:56.158Z,58.80
2019-05-17T14:51:01.162Z,57.80
2019-05-17T14:54:06.230Z,57.50
2019-05-17T14:57:11.366Z,56.90
2019-05-17T15:00:17.858Z,56.90
2019-05-17T15:03:22.951Z,56.10
2019-05-17T15:06:27.868Z,55.20
2019-05-17T15:09:32.984Z,54.00
2019-05-17T15:12:38.004Z,54.20
2019-05-17T15:15:43.158Z,54.10
2019-05-17T15:18:48.178Z,54.90
2019-05-17T15:21:53.265Z,56.00
2019-05-17T15:24:58.290Z,57.30
2019-05-17T15:28:03.318Z,59.00
2019-05-17T15:31:08.313Z,59.60
2019-05-17T15:34:13.409Z,58.90
2019-05-17T15:37:18.494Z,59.10
2019-05-17T15:40:23.515Z,59.90
2019-05-17T15:43:28.520Z,58.40
2019-05-17T15:46:33.538Z,57.70
2019-05-17T15:49:38.486Z,56.70
2019-05-17T15:52:43.463Z,57.20
2019-05-17T15:55:48.437Z,57.30
2019-05-17T15:58:53.509Z,57.50
2019-05-17T16:01:58.542Z,57.50
2019-05-17T16:05:03.941Z,57.40
2019-05-17T16:08:08.918Z,56.50
2019-05-17T16:11:13.960Z,56.10
2019-05-17T16:14:18.973Z,56.30
2019-05-17T16:17:24.013Z,56.90
2019-05-17T16:20:28.935Z,57.00
2019-05-17T16:23:34.050Z,56.20
2019-05-17T16:26:39.087Z,57.00
2019-05-17T16:29:44.164Z,56.90
2019-05-17T16:32:49.172Z,57.60
2019-05-17T16:35:54.121Z,58.40
2019-05-17T16:38:59.164Z,58.50
2019-05-17T16:42:04.235Z,59.10
2019-05-17T16:45:09.629Z,59.70
2019-05-17T16:48:14.652Z,60.50
2019-05-17T16:51:19.740Z,61.70
2019-05-17T16:54:24.769Z,63.00
2019-05-17T16:57:29.770Z,63.10
2019-05-17T17:00:37.930Z,63.40
2019-05-17T17:03:44.569Z,63.30
2019-05-17T17:06:49.743Z,63.60
2019-05-17T17:09:54.818Z,64.30
2019-05-17T17:12:59.906Z,64.60
2019-05-17T17:16:05.337Z,66.20
2019-05-17T17:19:10.343Z,66.10
2019-05-17T17:22:15.419Z,66.20
2019-05-17T17:25:20.491Z,66.40
2019-05-17T17:28:25.702Z,66.60
2019-05-17T17:31:30.865Z,66.80
2019-05-17T17:34:35.807Z,67.20
2019-05-17T17:37:40.837Z,67.90
2019-05-17T17:40:45.938Z,68.10
2019-05-17T17:43:58.536Z,68.50
2019-05-17T17:46:57.579Z,68.60
2019-05-17T17:50:02.805Z,69.10
2019-05-17T17:53:08.222Z,69.50
2019-05-17T17:56:13.811Z,69.60
2019-05-17T17:59:19.006Z,70.50
2019-05-17T18:02:24.287Z,69.90
2019-05-17T18:05:29.305Z,69.90
2019-05-17T18:08:34.829Z,70.40
2019-05-17T18:11:39.992Z,70.80
2019-05-17T18:14:45.019Z,71.00
2019-05-17T18:17:49.966Z,71.40
2019-05-17T18:20:54.982Z,71.60
2019-05-17T18:24:00.002Z,71.90
2019-05-17T18:27:05.090Z,72.30
2019-05-17T18:30:10.275Z,72.40
2019-05-17T18:33:15.357Z,72.90
2019-05-17T18:36:20.460Z,73.10
2019-05-17T18:39:25.557Z,73.40
2019-05-17T18:42:30.755Z,73.70
2019-05-17T18:45:35.859Z,74.10
2019-05-17T18:48:41.000Z,74.60
2019-05-17T18:51:46.068Z,74.80
2019-05-17T18:54:51.459Z,75.10
2019-05-17T18:57:56.551Z,75.50
2019-05-17T19:01:02.096Z,76.00
2019-05-17T19:04:07.668Z,76.30
2019-05-17T19:07:12.682Z,76.80
2019-05-17T19:10:17.713Z,77.00
2019-05-17T19:13:22.716Z,77.30
2019-05-17T19:16:27.658Z,77.70
2019-05-17T19:19:32.770Z,78.10
2019-05-17T19:22:37.795Z,78.20
2019-05-17T19:25:42.846Z,78.50
2019-05-17T19:28:47.919Z,78.70
2019-05-17T19:31:52.948Z,79.00
2019-05-17T19:34:58.274Z,79.30
2019-05-17T19:38:03.360Z,79.70
2019-05-17T19:41:08.519Z,79.90
2019-05-17T19:44:13.521Z,80.00
2019-05-17T19:47:18.520Z,80.30
2019-05-17T19:50:23.646Z,80.60
2019-05-17T19:53:28.670Z,81.10
2019-05-17T19:56:33.878Z,81.20
2019-05-17T19:59:38.912Z,81.60
2019-05-17T20:02:43.925Z,81.80
2019-05-17T20:05:49.245Z,82.10
2019-05-17T20:08:54.558Z,82.40
2019-05-17T20:11:59.648Z,82.70
2019-05-17T20:15:16.918Z,83.10
2019-05-17T20:18:11.945Z,83.50
2019-05-17T20:21:17.228Z,83.70
2019-05-17T20:24:22.294Z,84.00
2019-05-17T20:27:27.640Z,84.10
2019-05-17T20:30:32.813Z,84.50
2019-05-17T20:33:37.862Z,84.60
2019-05-17T20:36:42.811Z,84.80
2019-05-17T20:39:47.831Z,85.00
2019-05-17T20:42:52.769Z,85.10
2019-05-17T20:45:57.724Z,85.30
2019-05-17T20:49:02.758Z,85.70
2019-05-17T20:52:07.835Z,85.80
2019-05-17T20:55:13.232Z,86.20
2019-05-17T20:58:18.267Z,86.30
2019-05-17T21:01:23.274Z,86.50
2019-05-17T21:04:28.242Z,86.60
2019-05-17T21:07:33.237Z,86.70
2019-05-17T21:10:38.192Z,86.80
2019-05-17T21:13:43.199Z,87.00
2019-05-17T21:16:48.131Z,87.10
2019-05-17T21:19:53.061Z,87.30
2019-05-17T21:22:58.214Z,87.50
2019-05-17T21:26:03.235Z,88.50
2019-05-17T21:29:08.437Z,87.80
2019-05-17T21:32:13.461Z,87.80
2019-05-17T21:35:18.403Z,87.90
2019-05-17T21:38:23.409Z,88.10
2019-05-17T21:41:28.400Z,88.20
2019-05-17T21:44:33.347Z,88.40
2019-05-17T21:47:38.473Z,88.40
2019-05-17T21:50:43.486Z,88.40
2019-05-17T21:53:48.724Z,88.40
2019-05-17T21:56:53.806Z,88.50
2019-05-17T21:59:58.833Z,88.50
2019-05-17T22:03:03.981Z,88.60
2019-05-17T22:06:09.394Z,88.60
2019-05-17T22:09:14.499Z,88.80
2019-05-17T22:12:19.656Z,88.80
2019-05-17T22:15:24.666Z,88.90
2019-05-17T22:18:29.703Z,89.80
2019-05-17T22:21:34.719Z,89.00
2019-05-17T22:24:39.826Z,89.10
2019-05-17T22:27:44.755Z,89.10
2019-05-17T22:30:49.721Z,89.10
2019-05-17T22:33:55.515Z,89.30
2019-05-17T22:37:00.518Z,89.40
2019-05-17T22:40:05.978Z,89.60
2019-05-17T22:43:10.967Z,89.70
2019-05-17T22:46:15.913Z,89.80
2019-05-17T22:49:20.919Z,90.00
2019-05-17T22:52:25.861Z,90.00
2019-05-17T22:55:30.793Z,90.00
2019-05-17T22:58:35.816Z,90.10
2019-05-17T23:01:40.838Z,90.20
2019-05-17T23:04:45.902Z,90.10
2019-05-17T23:07:50.992Z,90.20
2019-05-17T23:10:55.931Z,90.30
2019-05-17T23:14:00.860Z,90.30
2019-05-17T23:17:05.886Z,90.60
2019-05-17T23:20:10.967Z,90.70
2019-05-17T23:23:15.906Z,90.40
2019-05-17T23:26:20.846Z,90.50
2019-05-17T23:29:25.779Z,90.60
2019-05-17T23:32:30.809Z,90.70
2019-05-17T23:35:35.824Z,90.80
2019-05-17T23:38:40.819Z,90.80
2019-05-17T23:41:45.761Z,90.80
2019-05-17T23:44:50.690Z,91.00
2019-05-17T23:47:55.622Z,91.30
2019-05-17T23:51:00.551Z,91.40
2019-05-17T23:54:05.619Z,91.60
2019-05-17T23:57:10.687Z,91.80
